sensor_id;sensor_type;location;lat;lon;timestamp;temperature;humidity
43772;HTU21D;59066;54.782;32.024;2023-06-10T00:00:03;14.87;63.57
43772;HTU21D;59066;54.782;32.024;2023-06-10T00:02:38;14.89;63.29
43772;HTU21D;59066;54.782;32.024;2023-06-10T00:05:07;14.84;63.31
43772;HTU21D;59066;54.782;32.024;2023-06-10T00:07:37;14.80;63.35
43772;HTU21D;59066;54.782;32.024;2023-06-10T00:10:06;14.77;63.55
43772;HTU21D;59066;54.782;32.024;2023-06-10T00:12:33;14.78;63.44
43772;HTU21D;59066;54.782;32.024;2023-06-10T00:15:05;14.84;63.12
43772;HTU21D;59066;54.782;32.024;2023-06-10T00:17:34;14.81;62.91
43772;HTU21D;59066;54.782;32.024;2023-06-10T00:20:01;14.80;63.13
43772;HTU21D;59066;54.782;32.024;2023-06-10T00:22:32;14.89;62.77
43772;HTU21D;59066;54.782;32.024;2023-06-10T00:24:59;14.89;62.48
43772;HTU21D;59066;54.782;32.024;2023-06-10T00:27:27;14.95;62.24
43772;HTU21D;59066;54.782;32.024;2023-06-10T00:29:59;14.94;62.12
43772;HTU21D;59066;54.782;32.024;2023-06-10T00:32:28;14.95;61.95
43772;HTU21D;59066;54.782;32.024;2023-06-10T00:34:55;14.96;61.83
43772;HTU21D;59066;54.782;32.024;2023-06-10T00:37:23;14.98;61.72
43772;HTU21D;59066;54.782;32.024;2023-06-10T00:39:51;14.99;61.53
43772;HTU21D;59066;54.782;32.024;2023-06-10T00:42:18;15.00;61.34
43772;HTU21D;59066;54.782;32.024;2023-06-10T00:44:47;15.00;61.31
43772;HTU21D;59066;54.782;32.024;2023-06-10T00:47:14;15.01;61.02
43772;HTU21D;59066;54.782;32.024;2023-06-10T00:49:43;15.04;60.95
43772;HTU21D;59066;54.782;32.024;2023-06-10T00:52:11;15.03;60.83
43772;HTU21D;59066;54.782;32.024;2023-06-10T00:54:40;15.03;60.80
43772;HTU21D;59066;54.782;32.024;2023-06-10T00:57:08;15.06;60.67
43772;HTU21D;59066;54.782;32.024;2023-06-10T00:59:36;15.01;60.51
43772;HTU21D;59066;54.782;32.024;2023-06-10T01:02:05;14.99;60.48
43772;HTU21D;59066;54.782;32.024;2023-06-10T01:04:32;14.96;60.76
43772;HTU21D;59066;54.782;32.024;2023-06-10T01:07:10;15.01;60.72
43772;HTU21D;59066;54.782;32.024;2023-06-10T01:09:48;15.00;60.60
43772;HTU21D;59066;54.782;32.024;2023-06-10T01:14:55;14.91;60.61
43772;HTU21D;59066;54.782;32.024;2023-06-10T01:17:26;14.86;60.70
43772;HTU21D;59066;54.782;32.024;2023-06-10T01:19:55;14.81;60.92
43772;HTU21D;59066;54.782;32.024;2023-06-10T01:22:26;14.79;61.09
43772;HTU21D;59066;54.782;32.024;2023-06-10T01:24:59;14.72;61.17
43772;HTU21D;59066;54.782;32.024;2023-06-10T01:27:30;14.64;61.26
43772;HTU21D;59066;54.782;32.024;2023-06-10T01:30:07;14.58;61.39
43772;HTU21D;59066;54.782;32.024;2023-06-10T01:32:43;14.50;61.51
43772;HTU21D;59066;54.782;32.024;2023-06-10T01:35:15;14.48;61.57
43772;HTU21D;59066;54.782;32.024;2023-06-10T01:37:46;14.48;61.59
43772;HTU21D;59066;54.782;32.024;2023-06-10T01:40:16;14.47;61.59
43772;HTU21D;59066;54.782;32.024;2023-06-10T01:42:44;14.45;61.49
43772;HTU21D;59066;54.782;32.024;2023-06-10T01:45:12;14.47;61.28
43772;HTU21D;59066;54.782;32.024;2023-06-10T01:47:40;14.48;61.16
43772;HTU21D;59066;54.782;32.024;2023-06-10T01:50:07;14.47;61.12
43772;HTU21D;59066;54.782;32.024;2023-06-10T01:52:35;14.44;60.93
43772;HTU21D;59066;54.782;32.024;2023-06-10T01:55:03;14.43;60.84
43772;HTU21D;59066;54.782;32.024;2023-06-10T01:57:31;14.43;60.73
43772;HTU21D;59066;54.782;32.024;2023-06-10T01:59:59;14.41;60.44
43772;HTU21D;59066;54.782;32.024;2023-06-10T02:02:27;14.38;60.12
43772;HTU21D;59066;54.782;32.024;2023-06-10T02:04:54;14.32;60.02
43772;HTU21D;59066;54.782;32.024;2023-06-10T02:07:22;14.28;59.80
43772;HTU21D;59066;54.782;32.024;2023-06-10T02:09:50;14.24;59.64
43772;HTU21D;59066;54.782;32.024;2023-06-10T02:12:18;14.22;59.48
43772;HTU21D;59066;54.782;32.024;2023-06-10T02:14:45;14.13;59.23
43772;HTU21D;59066;54.782;32.024;2023-06-10T02:17:13;14.07;59.18
43772;HTU21D;59066;54.782;32.024;2023-06-10T02:19:41;14.04;58.92
43772;HTU21D;59066;54.782;32.024;2023-06-10T02:22:09;13.98;58.69
43772;HTU21D;59066;54.782;32.024;2023-06-10T02:24:37;13.95;58.46
43772;HTU21D;59066;54.782;32.024;2023-06-10T02:27:05;13.91;58.34
43772;HTU21D;59066;54.782;32.024;2023-06-10T02:29:35;13.91;58.38
43772;HTU21D;59066;54.782;32.024;2023-06-10T02:32:04;13.92;58.20
43772;HTU21D;59066;54.782;32.024;2023-06-10T02:34:34;13.89;58.15
43772;HTU21D;59066;54.782;32.024;2023-06-10T02:37:02;13.88;58.06
43772;HTU21D;59066;54.782;32.024;2023-06-10T02:39:30;13.80;57.95
43772;HTU21D;59066;54.782;32.024;2023-06-10T02:41:58;13.71;57.93
43772;HTU21D;59066;54.782;32.024;2023-06-10T02:44:27;13.68;58.06
43772;HTU21D;59066;54.782;32.024;2023-06-10T02:46:55;13.68;58.00
43772;HTU21D;59066;54.782;32.024;2023-06-10T02:49:22;13.66;57.91
43772;HTU21D;59066;54.782;32.024;2023-06-10T02:51:50;13.65;57.74
43772;HTU21D;59066;54.782;32.024;2023-06-10T02:54:21;13.62;57.66
43772;HTU21D;59066;54.782;32.024;2023-06-10T02:56:52;13.62;57.55
43772;HTU21D;59066;54.782;32.024;2023-06-10T02:59:24;13.58;57.51
43772;HTU21D;59066;54.782;32.024;2023-06-10T03:01:54;13.54;57.45
43772;HTU21D;59066;54.782;32.024;2023-06-10T03:04:23;13.49;57.32
43772;HTU21D;59066;54.782;32.024;2023-06-10T03:07:00;13.48;57.36
43772;HTU21D;59066;54.782;32.024;2023-06-10T03:09:33;13.45;57.42
43772;HTU21D;59066;54.782;32.024;2023-06-10T03:12:02;13.39;57.45
43772;HTU21D;59066;54.782;32.024;2023-06-10T03:14:35;13.36;57.47
43772;HTU21D;59066;54.782;32.024;2023-06-10T03:17:03;13.37;57.41
43772;HTU21D;59066;54.782;32.024;2023-06-10T03:19:32;13.38;57.31
43772;HTU21D;59066;54.782;32.024;2023-06-10T03:22:12;13.44;57.29
43772;HTU21D;59066;54.782;32.024;2023-06-10T03:24:45;13.50;57.22
43772;HTU21D;59066;54.782;32.024;2023-06-10T03:27:16;13.55;57.10
43772;HTU21D;59066;54.782;32.024;2023-06-10T03:29:47;13.63;57.13
43772;HTU21D;59066;54.782;32.024;2023-06-10T03:32:16;13.67;56.89
43772;HTU21D;59066;54.782;32.024;2023-06-10T03:34:44;13.68;56.88
43772;HTU21D;59066;54.782;32.024;2023-06-10T03:37:14;13.63;56.84
43772;HTU21D;59066;54.782;32.024;2023-06-10T03:39:44;13.54;56.84
43772;HTU21D;59066;54.782;32.024;2023-06-10T03:42:12;13.54;56.78
43772;HTU21D;59066;54.782;32.024;2023-06-10T03:44:40;13.61;56.58
43772;HTU21D;59066;54.782;32.024;2023-06-10T03:47:08;13.64;56.39
43772;HTU21D;59066;54.782;32.024;2023-06-10T03:49:37;13.63;56.42
43772;HTU21D;59066;54.782;32.024;2023-06-10T03:52:05;13.68;56.48
43772;HTU21D;59066;54.782;32.024;2023-06-10T03:54:32;13.73;56.23
43772;HTU21D;59066;54.782;32.024;2023-06-10T03:57:02;13.77;56.32
43772;HTU21D;59066;54.782;32.024;2023-06-10T03:59:30;13.81;56.39
43772;HTU21D;59066;54.782;32.024;2023-06-10T04:01:58;13.86;56.32
43772;HTU21D;59066;54.782;32.024;2023-06-10T04:04:26;13.79;56.35
43772;HTU21D;59066;54.782;32.024;2023-06-10T04:06:53;13.81;56.20
43772;HTU21D;59066;54.782;32.024;2023-06-10T04:09:22;13.82;56.27
43772;HTU21D;59066;54.782;32.024;2023-06-10T04:11:49;13.91;56.07
43772;HTU21D;59066;54.782;32.024;2023-06-10T04:14:17;13.97;55.96
43772;HTU21D;59066;54.782;32.024;2023-06-10T04:16:46;13.93;55.90
43772;HTU21D;59066;54.782;32.024;2023-06-10T04:19:14;13.93;55.79
43772;HTU21D;59066;54.782;32.024;2023-06-10T04:21:42;13.93;55.85
43772;HTU21D;59066;54.782;32.024;2023-06-10T04:24:10;13.99;55.66
43772;HTU21D;59066;54.782;32.024;2023-06-10T04:26:38;14.04;55.32
43772;HTU21D;59066;54.782;32.024;2023-06-10T04:29:06;14.05;55.30
43772;HTU21D;59066;54.782;32.024;2023-06-10T04:31:34;14.12;55.25
43772;HTU21D;59066;54.782;32.024;2023-06-10T04:34:02;14.17;54.94
43772;HTU21D;59066;54.782;32.024;2023-06-10T04:36:30;14.19;54.87
43772;HTU21D;59066;54.782;32.024;2023-06-10T04:38:58;14.24;54.89
43772;HTU21D;59066;54.782;32.024;2023-06-10T04:41:27;14.27;54.80
43772;HTU21D;59066;54.782;32.024;2023-06-10T04:43:55;14.35;54.68
43772;HTU21D;59066;54.782;32.024;2023-06-10T04:46:23;14.36;54.73
43772;HTU21D;59066;54.782;32.024;2023-06-10T04:48:50;14.43;54.52
43772;HTU21D;59066;54.782;32.024;2023-06-10T04:51:18;14.51;54.30
43772;HTU21D;59066;54.782;32.024;2023-06-10T04:53:46;14.57;54.26
43772;HTU21D;59066;54.782;32.024;2023-06-10T04:56:14;14.65;54.09
43772;HTU21D;59066;54.782;32.024;2023-06-10T04:58:43;14.74;53.97
43772;HTU21D;59066;54.782;32.024;2023-06-10T05:01:11;14.80;53.82
43772;HTU21D;59066;54.782;32.024;2023-06-10T05:03:38;14.78;53.65
43772;HTU21D;59066;54.782;32.024;2023-06-10T05:06:06;14.81;53.59
43772;HTU21D;59066;54.782;32.024;2023-06-10T05:08:33;14.82;53.58
43772;HTU21D;59066;54.782;32.024;2023-06-10T05:11:01;14.89;53.59
43772;HTU21D;59066;54.782;32.024;2023-06-10T05:13:29;14.98;53.23
43772;HTU21D;59066;54.782;32.024;2023-06-10T05:15:57;15.02;52.98
43772;HTU21D;59066;54.782;32.024;2023-06-10T05:18:24;15.04;52.65
43772;HTU21D;59066;54.782;32.024;2023-06-10T05:20:52;15.14;52.61
43772;HTU21D;59066;54.782;32.024;2023-06-10T05:23:21;15.17;52.64
43772;HTU21D;59066;54.782;32.024;2023-06-10T05:25:48;15.23;52.60
43772;HTU21D;59066;54.782;32.024;2023-06-10T05:28:16;15.25;52.46
43772;HTU21D;59066;54.782;32.024;2023-06-10T05:30:44;15.30;52.32
43772;HTU21D;59066;54.782;32.024;2023-06-10T05:33:12;15.34;52.13
43772;HTU21D;59066;54.782;32.024;2023-06-10T05:35:39;15.45;52.04
43772;HTU21D;59066;54.782;32.024;2023-06-10T05:38:08;15.52;51.82
43772;HTU21D;59066;54.782;32.024;2023-06-10T05:40:35;15.55;51.59
43772;HTU21D;59066;54.782;32.024;2023-06-10T05:43:03;15.60;51.66
43772;HTU21D;59066;54.782;32.024;2023-06-10T05:45:31;15.67;51.46
43772;HTU21D;59066;54.782;32.024;2023-06-10T05:47:58;15.70;51.27
43772;HTU21D;59066;54.782;32.024;2023-06-10T05:50:26;15.77;50.98
43772;HTU21D;59066;54.782;32.024;2023-06-10T05:52:54;15.82;50.69
43772;HTU21D;59066;54.782;32.024;2023-06-10T05:55:24;15.83;50.40
43772;HTU21D;59066;54.782;32.024;2023-06-10T05:57:59;15.84;49.95
43772;HTU21D;59066;54.782;32.024;2023-06-10T06:00:27;15.85;49.87
43772;HTU21D;59066;54.782;32.024;2023-06-10T06:02:54;15.92;49.89
43772;HTU21D;59066;54.782;32.024;2023-06-10T06:05:25;15.98;49.89
43772;HTU21D;59066;54.782;32.024;2023-06-10T06:07:52;16.05;49.69
43772;HTU21D;59066;54.782;32.024;2023-06-10T06:10:20;16.10;49.45
43772;HTU21D;59066;54.782;32.024;2023-06-10T06:12:47;16.18;49.18
43772;HTU21D;59066;54.782;32.024;2023-06-10T06:15:15;16.25;49.17
43772;HTU21D;59066;54.782;32.024;2023-06-10T06:17:42;16.30;49.02
43772;HTU21D;59066;54.782;32.024;2023-06-10T06:20:10;16.32;48.80
43772;HTU21D;59066;54.782;32.024;2023-06-10T06:22:38;16.32;48.64
43772;HTU21D;59066;54.782;32.024;2023-06-10T06:25:07;16.35;48.51
43772;HTU21D;59066;54.782;32.024;2023-06-10T06:27:35;16.41;48.42
43772;HTU21D;59066;54.782;32.024;2023-06-10T06:30:03;16.45;48.31
43772;HTU21D;59066;54.782;32.024;2023-06-10T06:32:31;16.48;48.15
43772;HTU21D;59066;54.782;32.024;2023-06-10T06:34:58;16.54;48.06
43772;HTU21D;59066;54.782;32.024;2023-06-10T06:37:26;16.59;48.06
43772;HTU21D;59066;54.782;32.024;2023-06-10T06:40:12;16.61;47.98
43772;HTU21D;59066;54.782;32.024;2023-06-10T06:42:40;16.70;47.55
43772;HTU21D;59066;54.782;32.024;2023-06-10T06:45:26;16.75;47.05
43772;HTU21D;59066;54.782;32.024;2023-06-10T06:47:53;16.84;46.60
43772;HTU21D;59066;54.782;32.024;2023-06-10T06:50:23;16.87;46.28
43772;HTU21D;59066;54.782;32.024;2023-06-10T06:52:50;16.96;45.67
43772;HTU21D;59066;54.782;32.024;2023-06-10T06:55:18;17.07;45.32
43772;HTU21D;59066;54.782;32.024;2023-06-10T06:57:45;17.14;44.93
43772;HTU21D;59066;54.782;32.024;2023-06-10T07:00:13;17.18;44.73
43772;HTU21D;59066;54.782;32.024;2023-06-10T07:02:41;17.24;44.61
43772;HTU21D;59066;54.782;32.024;2023-06-10T07:05:08;17.23;43.98
43772;HTU21D;59066;54.782;32.024;2023-06-10T07:07:36;17.26;43.83
43772;HTU21D;59066;54.782;32.024;2023-06-10T07:10:04;17.32;43.44
43772;HTU21D;59066;54.782;32.024;2023-06-10T07:12:32;17.32;43.19
43772;HTU21D;59066;54.782;32.024;2023-06-10T07:14:59;17.35;43.26
43772;HTU21D;59066;54.782;32.024;2023-06-10T07:17:27;17.39;42.90
43772;HTU21D;59066;54.782;32.024;2023-06-10T07:19:55;17.45;42.88
43772;HTU21D;59066;54.782;32.024;2023-06-10T07:22:25;17.60;42.39
43772;HTU21D;59066;54.782;32.024;2023-06-10T07:24:52;17.67;42.32
43772;HTU21D;59066;54.782;32.024;2023-06-10T07:27:22;17.76;42.21
43772;HTU21D;59066;54.782;32.024;2023-06-10T07:29:50;17.82;42.03
43772;HTU21D;59066;54.782;32.024;2023-06-10T07:32:19;17.85;41.84
43772;HTU21D;59066;54.782;32.024;2023-06-10T07:34:50;17.89;41.60
43772;HTU21D;59066;54.782;32.024;2023-06-10T07:37:20;17.91;41.40
43772;HTU21D;59066;54.782;32.024;2023-06-10T07:39:47;17.95;41.29
43772;HTU21D;59066;54.782;32.024;2023-06-10T07:42:15;18.03;41.23
43772;HTU21D;59066;54.782;32.024;2023-06-10T07:44:42;18.09;41.04
43772;HTU21D;59066;54.782;32.024;2023-06-10T07:47:10;18.15;40.85
43772;HTU21D;59066;54.782;32.024;2023-06-10T07:49:38;18.14;39.78
43772;HTU21D;59066;54.782;32.024;2023-06-10T07:52:06;18.21;39.60
43772;HTU21D;59066;54.782;32.024;2023-06-10T07:54:33;18.26;39.50
43772;HTU21D;59066;54.782;32.024;2023-06-10T07:57:01;18.33;39.59
43772;HTU21D;59066;54.782;32.024;2023-06-10T07:59:29;18.46;39.61
43772;HTU21D;59066;54.782;32.024;2023-06-10T08:01:56;18.55;39.28
43772;HTU21D;59066;54.782;32.024;2023-06-10T08:04:24;18.61;39.13
43772;HTU21D;59066;54.782;32.024;2023-06-10T08:06:51;18.74;38.96
43772;HTU21D;59066;54.782;32.024;2023-06-10T08:09:19;18.84;38.91
43772;HTU21D;59066;54.782;32.024;2023-06-10T08:11:49;18.92;38.94
43772;HTU21D;59066;54.782;32.024;2023-06-10T08:14:19;19.05;38.78
43772;HTU21D;59066;54.782;32.024;2023-06-10T08:16:46;18.99;38.61
43772;HTU21D;59066;54.782;32.024;2023-06-10T08:19:14;18.99;38.67
43772;HTU21D;59066;54.782;32.024;2023-06-10T08:21:44;18.99;38.28
43772;HTU21D;59066;54.782;32.024;2023-06-10T08:24:12;19.05;38.34
43772;HTU21D;59066;54.782;32.024;2023-06-10T08:26:39;19.17;38.29
43772;HTU21D;59066;54.782;32.024;2023-06-10T08:29:07;19.33;38.20
43772;HTU21D;59066;54.782;32.024;2023-06-10T08:31:34;19.43;38.14
43772;HTU21D;59066;54.782;32.024;2023-06-10T08:34:02;19.54;38.06
43772;HTU21D;59066;54.782;32.024;2023-06-10T08:36:30;19.65;38.03
43772;HTU21D;59066;54.782;32.024;2023-06-10T08:38:57;19.79;37.75
43772;HTU21D;59066;54.782;32.024;2023-06-10T08:41:25;19.90;37.68
43772;HTU21D;59066;54.782;32.024;2023-06-10T08:46:37;20.01;37.22
43772;HTU21D;59066;54.782;32.024;2023-06-10T08:49:06;20.05;37.02
43772;HTU21D;59066;54.782;32.024;2023-06-10T08:51:35;20.29;36.80
43772;HTU21D;59066;54.782;32.024;2023-06-10T08:54:17;20.42;36.25
43772;HTU21D;59066;54.782;32.024;2023-06-10T08:56:49;20.51;36.31
43772;HTU21D;59066;54.782;32.024;2023-06-10T08:59:19;20.59;36.15
43772;HTU21D;59066;54.782;32.024;2023-06-10T09:01:47;20.61;36.15
43772;HTU21D;59066;54.782;32.024;2023-06-10T09:04:15;20.72;35.79
43772;HTU21D;59066;54.782;32.024;2023-06-10T09:06:46;20.83;35.57
43772;HTU21D;59066;54.782;32.024;2023-06-10T09:09:14;21.06;35.46
43772;HTU21D;59066;54.782;32.024;2023-06-10T09:11:42;21.35;35.13
43772;HTU21D;59066;54.782;32.024;2023-06-10T09:14:10;21.49;34.65
43772;HTU21D;59066;54.782;32.024;2023-06-10T09:16:40;21.45;34.56
43772;HTU21D;59066;54.782;32.024;2023-06-10T09:19:07;21.53;34.49
43772;HTU21D;59066;54.782;32.024;2023-06-10T09:21:36;21.46;34.22
43772;HTU21D;59066;54.782;32.024;2023-06-10T09:24:05;21.51;34.34
43772;HTU21D;59066;54.782;32.024;2023-06-10T09:26:32;21.57;34.18
43772;HTU21D;59066;54.782;32.024;2023-06-10T09:29:04;21.70;34.12
43772;HTU21D;59066;54.782;32.024;2023-06-10T09:31:35;21.73;33.72
43772;HTU21D;59066;54.782;32.024;2023-06-10T09:36:39;22.10;33.31
43772;HTU21D;59066;54.782;32.024;2023-06-10T09:39:17;22.21;32.48
43772;HTU21D;59066;54.782;32.024;2023-06-10T09:41:46;22.13;32.92
43772;HTU21D;59066;54.782;32.024;2023-06-10T09:44:21;22.08;33.13
43772;HTU21D;59066;54.782;32.024;2023-06-10T09:46:49;22.07;33.01
43772;HTU21D;59066;54.782;32.024;2023-06-10T09:49:21;21.81;33.18
43772;HTU21D;59066;54.782;32.024;2023-06-10T09:51:51;21.77;33.25
43772;HTU21D;59066;54.782;32.024;2023-06-10T09:54:20;21.91;32.84
43772;HTU21D;59066;54.782;32.024;2023-06-10T09:56:53;22.07;32.36
43772;HTU21D;59066;54.782;32.024;2023-06-10T09:59:30;22.36;31.86
43772;HTU21D;59066;54.782;32.024;2023-06-10T10:02:01;22.42;31.93
43772;HTU21D;59066;54.782;32.024;2023-06-10T10:04:29;22.46;32.10
43772;HTU21D;59066;54.782;32.024;2023-06-10T10:06:57;22.99;32.49
43772;HTU21D;59066;54.782;32.024;2023-06-10T10:09:26;23.57;32.01
43772;HTU21D;59066;54.782;32.024;2023-06-10T10:11:55;23.70;31.13
43772;HTU21D;59066;54.782;32.024;2023-06-10T10:14:23;24.33;31.09
43772;HTU21D;59066;54.782;32.024;2023-06-10T10:16:52;25.27;30.52
43772;HTU21D;59066;54.782;32.024;2023-06-10T10:19:28;26.11;27.76
43772;HTU21D;59066;54.782;32.024;2023-06-10T10:22:27;26.28;26.38
43772;HTU21D;59066;54.782;32.024;2023-06-10T10:25:00;26.38;26.74
43772;HTU21D;59066;54.782;32.024;2023-06-10T10:27:47;26.52;24.25
43772;HTU21D;59066;54.782;32.024;2023-06-10T10:30:20;26.58;25.22
43772;HTU21D;59066;54.782;32.024;2023-06-10T10:33:00;27.28;23.65
43772;HTU21D;59066;54.782;32.024;2023-06-10T10:35:36;27.74;24.07
43772;HTU21D;59066;54.782;32.024;2023-06-10T10:38:05;27.85;23.25
43772;HTU21D;59066;54.782;32.024;2023-06-10T10:40:36;27.91;22.14
43772;HTU21D;59066;54.782;32.024;2023-06-10T10:43:04;27.93;22.40
43772;HTU21D;59066;54.782;32.024;2023-06-10T10:45:34;27.49;22.00
43772;HTU21D;59066;54.782;32.024;2023-06-10T10:48:05;26.90;22.45
43772;HTU21D;59066;54.782;32.024;2023-06-10T10:50:36;27.37;22.77
43772;HTU21D;59066;54.782;32.024;2023-06-10T10:53:04;27.97;22.44
43772;HTU21D;59066;54.782;32.024;2023-06-10T10:55:33;28.55;21.67
43772;HTU21D;59066;54.782;32.024;2023-06-10T11:00:36;29.02;19.64
43772;HTU21D;59066;54.782;32.024;2023-06-10T11:03:06;28.61;20.25
43772;HTU21D;59066;54.782;32.024;2023-06-10T11:05:45;27.87;19.99
43772;HTU21D;59066;54.782;32.024;2023-06-10T11:11:21;26.38;21.33
43772;HTU21D;59066;54.782;32.024;2023-06-10T11:14:27;26.66;21.38
43772;HTU21D;59066;54.782;32.024;2023-06-10T11:17:00;27.39;21.47
43772;HTU21D;59066;54.782;32.024;2023-06-10T11:19:37;28.19;20.21
43772;HTU21D;59066;54.782;32.024;2023-06-10T11:22:07;28.97;20.21
43772;HTU21D;59066;54.782;32.024;2023-06-10T11:24:35;29.49;19.99
43772;HTU21D;59066;54.782;32.024;2023-06-10T11:27:19;29.48;18.31
43772;HTU21D;59066;54.782;32.024;2023-06-10T11:32:32;28.27;19.55
43772;HTU21D;59066;54.782;32.024;2023-06-10T11:35:02;28.84;19.49
43772;HTU21D;59066;54.782;32.024;2023-06-10T11:37:31;29.62;19.25
43772;HTU21D;59066;54.782;32.024;2023-06-10T11:39:58;30.17;18.79
43772;HTU21D;59066;54.782;32.024;2023-06-10T11:42:26;30.77;18.19
43772;HTU21D;59066;54.782;32.024;2023-06-10T11:44:54;30.37;17.46
43772;HTU21D;59066;54.782;32.024;2023-06-10T11:47:25;29.50;17.43
43772;HTU21D;59066;54.782;32.024;2023-06-10T11:49:57;29.56;17.19
43772;HTU21D;59066;54.782;32.024;2023-06-10T11:52:29;30.04;17.06
43772;HTU21D;59066;54.782;32.024;2023-06-10T11:54:59;30.54;17.38
43772;HTU21D;59066;54.782;32.024;2023-06-10T11:57:27;30.66;17.06
43772;HTU21D;59066;54.782;32.024;2023-06-10T11:59:54;29.86;16.83
43772;HTU21D;59066;54.782;32.024;2023-06-10T12:02:22;29.07;16.83
43772;HTU21D;59066;54.782;32.024;2023-06-10T12:04:50;28.74;17.25
43772;HTU21D;59066;54.782;32.024;2023-06-10T12:07:18;29.13;17.78
43772;HTU21D;59066;54.782;32.024;2023-06-10T12:09:47;29.50;17.71
43772;HTU21D;59066;54.782;32.024;2023-06-10T12:12:34;29.45;17.75
43772;HTU21D;59066;54.782;32.024;2023-06-10T12:15:04;29.62;17.53
43772;HTU21D;59066;54.782;32.024;2023-06-10T12:20:05;29.61;17.59
43772;HTU21D;59066;54.782;32.024;2023-06-10T12:22:43;30.10;16.95
43772;HTU21D;59066;54.782;32.024;2023-06-10T12:25:11;30.67;17.03
43772;HTU21D;59066;54.782;32.024;2023-06-10T12:27:49;31.28;16.61
43772;HTU21D;59066;54.782;32.024;2023-06-10T12:30:21;31.64;15.80
43772;HTU21D;59066;54.782;32.024;2023-06-10T12:32:50;31.29;15.92
43772;HTU21D;59066;54.782;32.024;2023-06-10T12:35:24;30.39;15.88
43772;HTU21D;59066;54.782;32.024;2023-06-10T12:40:34;28.44;17.51
43772;HTU21D;59066;54.782;32.024;2023-06-10T12:43:03;27.94;17.86
43772;HTU21D;59066;54.782;32.024;2023-06-10T12:45:35;28.43;18.08
43772;HTU21D;59066;54.782;32.024;2023-06-10T12:48:20;29.20;17.38
43772;HTU21D;59066;54.782;32.024;2023-06-10T12:53:21;30.28;17.28
43772;HTU21D;59066;54.782;32.024;2023-06-10T12:55:50;30.39;16.88
43772;HTU21D;59066;54.782;32.024;2023-06-10T12:58:21;30.26;16.67
43772;HTU21D;59066;54.782;32.024;2023-06-10T13:00:49;30.35;16.71
43772;HTU21D;59066;54.782;32.024;2023-06-10T13:03:20;30.68;16.46
43772;HTU21D;59066;54.782;32.024;2023-06-10T13:05:47;30.68;16.25
43772;HTU21D;59066;54.782;32.024;2023-06-10T13:08:15;30.76;16.19
43772;HTU21D;59066;54.782;32.024;2023-06-10T13:10:43;31.14;15.80
43772;HTU21D;59066;54.782;32.024;2023-06-10T13:13:10;31.36;15.64
43772;HTU21D;59066;54.782;32.024;2023-06-10T13:15:38;31.87;15.33
43772;HTU21D;59066;54.782;32.024;2023-06-10T13:18:09;32.15;14.94
43772;HTU21D;59066;54.782;32.024;2023-06-10T13:20:37;32.58;14.55
43772;HTU21D;59066;54.782;32.024;2023-06-10T13:23:04;32.50;14.49
43772;HTU21D;59066;54.782;32.024;2023-06-10T13:25:33;32.53;14.45
43772;HTU21D;59066;54.782;32.024;2023-06-10T13:28:01;32.40;14.29
43772;HTU21D;59066;54.782;32.024;2023-06-10T13:30:29;32.79;14.08
43772;HTU21D;59066;54.782;32.024;2023-06-10T13:32:58;32.43;14.10
43772;HTU21D;59066;54.782;32.024;2023-06-10T13:35:26;31.72;14.32
43772;HTU21D;59066;54.782;32.024;2023-06-10T13:37:53;30.89;14.77
43772;HTU21D;59066;54.782;32.024;2023-06-10T13:40:23;30.22;15.35
43772;HTU21D;59066;54.782;32.024;2023-06-10T13:42:51;29.43;15.56
43772;HTU21D;59066;54.782;32.024;2023-06-10T13:45:22;29.05;15.92
43772;HTU21D;59066;54.782;32.024;2023-06-10T13:47:50;29.16;16.07
43772;HTU21D;59066;54.782;32.024;2023-06-10T13:50:17;29.36;16.15
43772;HTU21D;59066;54.782;32.024;2023-06-10T13:52:45;29.41;16.05
43772;HTU21D;59066;54.782;32.024;2023-06-10T13:55:12;29.33;16.06
43772;HTU21D;59066;54.782;32.024;2023-06-10T13:57:40;29.32;16.14
43772;HTU21D;59066;54.782;32.024;2023-06-10T14:00:08;29.34;16.39
43772;HTU21D;59066;54.782;32.024;2023-06-10T14:02:37;29.62;16.22
43772;HTU21D;59066;54.782;32.024;2023-06-10T14:05:06;29.89;16.14
43772;HTU21D;59066;54.782;32.024;2023-06-10T14:07:35;29.54;15.97
43772;HTU21D;59066;54.782;32.024;2023-06-10T14:10:04;28.95;16.13
43772;HTU21D;59066;54.782;32.024;2023-06-10T14:12:32;28.35;16.48
43772;HTU21D;59066;54.782;32.024;2023-06-10T14:15:00;27.89;16.96
43772;HTU21D;59066;54.782;32.024;2023-06-10T14:17:28;27.43;17.41
43772;HTU21D;59066;54.782;32.024;2023-06-10T14:19:55;27.14;17.80
43772;HTU21D;59066;54.782;32.024;2023-06-10T14:22:23;26.81;18.49
43772;HTU21D;59066;54.782;32.024;2023-06-10T14:24:50;26.92;18.63
43772;HTU21D;59066;54.782;32.024;2023-06-10T14:27:18;26.90;18.92
43772;HTU21D;59066;54.782;32.024;2023-06-10T14:29:45;26.89;19.15
43772;HTU21D;59066;54.782;32.024;2023-06-10T14:32:15;26.50;19.54
43772;HTU21D;59066;54.782;32.024;2023-06-10T14:34:43;25.99;19.72
43772;HTU21D;59066;54.782;32.024;2023-06-10T14:37:11;25.62;19.87
43772;HTU21D;59066;54.782;32.024;2023-06-10T14:39:39;25.48;20.06
43772;HTU21D;59066;54.782;32.024;2023-06-10T14:42:10;25.19;20.40
43772;HTU21D;59066;54.782;32.024;2023-06-10T14:44:45;25.35;20.66
43772;HTU21D;59066;54.782;32.024;2023-06-10T14:47:12;25.47;20.33
43772;HTU21D;59066;54.782;32.024;2023-06-10T14:49:40;25.42;20.60
43772;HTU21D;59066;54.782;32.024;2023-06-10T14:52:09;25.29;20.95
43772;HTU21D;59066;54.782;32.024;2023-06-10T14:54:37;25.16;21.18
43772;HTU21D;59066;54.782;32.024;2023-06-10T14:57:05;25.03;21.38
43772;HTU21D;59066;54.782;32.024;2023-06-10T14:59:33;25.06;21.39
43772;HTU21D;59066;54.782;32.024;2023-06-10T15:02:01;25.06;21.38
43772;HTU21D;59066;54.782;32.024;2023-06-10T15:04:31;25.08;21.62
43772;HTU21D;59066;54.782;32.024;2023-06-10T15:06:59;25.02;21.81
43772;HTU21D;59066;54.782;32.024;2023-06-10T15:09:27;25.33;21.64
43772;HTU21D;59066;54.782;32.024;2023-06-10T15:11:54;25.14;21.73
43772;HTU21D;59066;54.782;32.024;2023-06-10T15:14:22;24.73;22.10
43772;HTU21D;59066;54.782;32.024;2023-06-10T15:16:53;24.68;22.09
43772;HTU21D;59066;54.782;32.024;2023-06-10T15:19:20;24.51;22.12
43772;HTU21D;59066;54.782;32.024;2023-06-10T15:21:48;24.32;22.36
43772;HTU21D;59066;54.782;32.024;2023-06-10T15:24:15;24.44;22.40
43772;HTU21D;59066;54.782;32.024;2023-06-10T15:26:43;24.34;22.33
43772;HTU21D;59066;54.782;32.024;2023-06-10T15:29:11;24.16;22.57
43772;HTU21D;59066;54.782;32.024;2023-06-10T15:31:38;24.26;22.66
43772;HTU21D;59066;54.782;32.024;2023-06-10T15:34:06;24.31;22.41
43772;HTU21D;59066;54.782;32.024;2023-06-10T15:36:35;24.41;22.24
43772;HTU21D;59066;54.782;32.024;2023-06-10T15:39:04;24.36;22.25